Time;durP1;ratioP1;P1;durP2;ratioP2;P2;SDS_P1;SDS_P2;PMS_P1;PMS_P2;Temp;Humidity;BMP_temperature;BMP_pressure;BME280_temperature;BME280_humidity;BME280_pressure;Samples;Min_cycle;Max_cycle;Signal;HPM_P1;HPM_P2
2023/06/16 00:00:38;;;;;;;;;;;;;;;22.61;65.39;100250.69;7397974;19;1430;-80
2023/06/16 00:03:07;;;;;;;;;;;;;;;22.67;65.04;100259.13;7401505;19;1754;-79
2023/06/16 00:05:36;;;;;;;;;;;;;;;22.71;65.10;100260.47;7399977;19;1306;-79
2023/06/16 00:08:09;;;;;;;;;;;;;;;22.78;64.73;100262.31;7401342;19;987;-79
2023/06/16 00:10:37;;;;;;;;;;;;;;;22.78;64.68;100243.44;7399587;19;1851;-79
2023/06/16 00:13:05;;;;;;;;;;;;;;;22.71;64.67;100250.50;7400093;19;1504;-79
2023/06/16 00:15:34;;;;;;;;;;;;;;;22.63;64.92;100237.91;7401010;19;1588;-79
2023/06/16 00:18:02;;;;;;;;;;;;;;;22.64;64.80;100228.81;7400284;19;1858;-79
2023/06/16 00:20:32;;;;;;;;;;;;;;;22.64;64.87;100227.94;7401682;19;1741;-79
2023/06/16 00:23:00;;;;;;;;;;;;;;;22.61;65.22;100236.41;7401624;19;1801;-79
2023/06/16 00:25:31;;;;;;;;;;;;;;;22.66;64.84;100231.34;7401358;19;1807;-79
2023/06/16 00:28:00;;;;;;;;;;;;;;;22.76;64.75;100241.91;7399962;19;1786;-79
2023/06/16 00:30:28;;;;;;;;;;;;;;;22.75;64.28;100224.06;7396805;19;1848;-79
2023/06/16 00:32:56;;;;;;;;;;;;;;;22.72;64.34;100229.78;7399769;19;1370;-79
2023/06/16 00:35:25;;;;;;;;;;;;;;;22.68;64.62;100231.16;7400786;19;1707;-79
2023/06/16 00:37:53;;;;;;;;;;;;;;;22.73;64.61;100223.41;7396825;19;1568;-79
2023/06/16 00:40:21;;;;;;;;;;;;;;;22.73;64.39;100229.63;7400943;19;1376;-79
2023/06/16 00:42:53;;;;;;;;;;;;;;;22.73;64.30;100236.88;7401721;19;1976;-79
2023/06/16 00:45:22;;;;;;;;;;;;;;;22.64;64.58;100223.44;7400939;19;1632;-79
2023/06/16 00:47:50;;;;;;;;;;;;;;;22.60;64.64;100222.09;7393991;19;1575;-79
2023/06/16 00:50:19;;;;;;;;;;;;;;;22.72;64.44;100224.41;7399862;19;1826;-79
2023/06/16 00:52:48;;;;;;;;;;;;;;;22.64;64.22;100223.44;7397941;19;1635;-79
2023/06/16 00:55:19;;;;;;;;;;;;;;;22.61;64.36;100220.22;7395484;19;1831;-79
2023/06/16 00:57:47;;;;;;;;;;;;;;;22.59;64.35;100230.34;7398573;19;1751;-79
2023/06/16 01:00:19;;;;;;;;;;;;;;;22.60;64.21;100215.84;7397318;19;1752;-79
2023/06/16 01:02:47;;;;;;;;;;;;;;;22.58;64.35;100220.56;7399991;19;1757;-79
2023/06/16 01:05:17;;;;;;;;;;;;;;;22.59;64.55;100225.78;7398633;19;1639;-79
2023/06/16 01:07:50;;;;;;;;;;;;;;;22.50;64.01;100191.81;7396603;19;1543;-80
2023/06/16 01:10:20;;;;;;;;;;;;;;;22.78;63.94;100223.69;7397077;19;1866;-79
2023/06/16 01:12:55;;;;;;;;;;;;;;;22.77;63.99;100222.88;7397383;19;1516;-79
2023/06/16 01:15:27;;;;;;;;;;;;;;;22.79;64.06;100225.41;7399253;19;1461;-79
2023/06/16 01:17:59;;;;;;;;;;;;;;;22.77;63.87;100228.25;7397839;19;1905;-79
2023/06/16 01:20:38;;;;;;;;;;;;;;;22.75;63.99;100218.66;7397387;19;1748;-79
2023/06/16 01:23:12;;;;;;;;;;;;;;;22.73;63.97;100199.13;7396843;19;1754;-79
2023/06/16 01:25:44;;;;;;;;;;;;;;;22.62;64.17;100201.19;7398468;19;1612;-80
2023/06/16 01:28:12;;;;;;;;;;;;;;;22.54;64.38;100190.44;7396939;19;1758;-79
2023/06/16 01:30:44;;;;;;;;;;;;;;;22.53;64.07;100188.75;7396579;19;1838;-79
2023/06/16 01:33:14;;;;;;;;;;;;;;;22.63;64.16;100200.16;7399972;19;1762;-79
2023/06/16 01:35:43;;;;;;;;;;;;;;;22.71;64.12;100190.38;7397092;19;1740;-78
2023/06/16 01:38:11;;;;;;;;;;;;;;;22.75;63.90;100191.72;7397198;19;1588;-79
2023/06/16 01:40:40;;;;;;;;;;;;;;;22.70;63.98;100200.34;7397837;19;1566;-79
2023/06/16 01:43:12;;;;;;;;;;;;;;;22.64;63.90;100201.88;7397897;19;1604;-78
2023/06/16 01:45:41;;;;;;;;;;;;;;;22.59;64.04;100179.97;7396196;19;1680;-79
2023/06/16 01:48:10;;;;;;;;;;;;;;;22.64;64.19;100199.16;7393632;19;1556;-79
2023/06/16 01:50:39;;;;;;;;;;;;;;;22.64;63.90;100179.44;7396629;19;1850;-79
2023/06/16 01:53:07;;;;;;;;;;;;;;;22.64;63.78;100182.13;7397845;19;1984;-79
2023/06/16 01:55:36;;;;;;;;;;;;;;;22.62;63.92;100185.03;7397770;19;1401;-78
2023/06/16 01:58:05;;;;;;;;;;;;;;;22.57;63.79;100181.16;7395043;19;1578;-79
2023/06/16 02:00:38;;;;;;;;;;;;;;;22.54;64.07;100189.59;7397249;19;1699;-79
2023/06/16 02:03:08;;;;;;;;;;;;;;;22.55;64.04;100183.19;7399035;19;1503;-79
2023/06/16 02:05:37;;;;;;;;;;;;;;;22.59;64.06;100177.28;7399038;19;1716;-79
2023/06/16 02:08:06;;;;;;;;;;;;;;;22.59;63.95;100177.28;7397688;19;1658;-80
2023/06/16 02:10:35;;;;;;;;;;;;;;;22.60;63.99;100178.97;7397079;19;1851;-79
2023/06/16 02:13:03;;;;;;;;;;;;;;;22.68;63.65;100185.31;7396198;19;1536;-79
2023/06/16 02:15:33;;;;;;;;;;;;;;;22.67;63.89;100184.50;7399485;19;1010;-79
2023/06/16 02:18:04;;;;;;;;;;;;;;;22.65;63.75;100178.44;7392929;19;1870;-79
2023/06/16 02:20:32;;;;;;;;;;;;;;;22.64;63.84;100177.59;7398481;19;1819;-79
2023/06/16 02:23:00;;;;;;;;;;;;;;;22.67;63.86;100184.50;7396620;19;1417;-79
2023/06/16 02:25:29;;;;;;;;;;;;;;;22.67;63.77;100172.88;7396737;19;1393;-79
2023/06/16 02:27:57;;;;;;;;;;;;;;;22.70;63.62;100197.63;7397177;19;1650;-79
2023/06/16 02:30:25;;;;;;;;;;;;;;;22.67;63.61;100183.66;7396570;19;1849;-79
2023/06/16 02:32:57;;;;;;;;;;;;;;;22.77;63.34;100192.38;7397461;19;1583;-78
2023/06/16 02:35:28;;;;;;;;;;;;;;;22.78;63.49;100188.66;7397617;19;1711;-79
2023/06/16 02:37:56;;;;;;;;;;;;;;;22.71;63.51;100187.69;7397769;19;1651;-79
2023/06/16 02:40:25;;;;;;;;;;;;;;;22.68;63.59;100190.72;7397653;19;1385;-79
2023/06/16 02:42:53;;;;;;;;;;;;;;;22.80;63.29;100189.31;7396636;19;1476;-79
2023/06/16 02:45:21;;;;;;;;;;;;;;;22.70;63.66;100183.28;7397774;19;1871;-79
2023/06/16 02:47:50;;;;;;;;;;;;;;;22.74;63.75;100184.63;7393728;19;1473;-79
2023/06/16 02:50:18;;;;;;;;;;;;;;;22.58;63.81;100186.38;7396115;19;1853;-78
2023/06/16 02:52:49;;;;;;;;;;;;;;;22.59;64.23;100176.44;7393683;19;1949;-79
2023/06/16 02:55:18;;;;;;;;;;;;;;;22.52;64.46;100180.84;7397582;19;1903;-78
2023/06/16 02:57:47;;;;;;;;;;;;;;;22.52;64.54;100181.69;7394086;19;1627;-79
2023/06/16 03:00:16;;;;;;;;;;;;;;;22.54;64.80;100179.66;7396679;19;1508;-79
2023/06/16 03:02:44;;;;;;;;;;;;;;;22.55;64.75;100186.72;7404219;19;1394;-78
2023/06/16 03:05:12;;;;;;;;;;;;;;;22.58;64.22;100181.00;7404545;19;1740;-79
2023/06/16 03:07:41;;;;;;;;;;;;;;;22.55;64.05;100170.56;7404071;19;1366;-80
2023/06/16 03:10:12;;;;;;;;;;;;;;;22.54;64.07;100176.97;7404722;19;1845;-78
2023/06/16 03:12:40;;;;;;;;;;;;;;;22.51;64.19;100169.22;7403780;19;1575;-79
2023/06/16 03:15:09;;;;;;;;;;;;;;;22.49;64.39;100176.63;7400333;19;1370;-78
2023/06/16 03:17:38;;;;;;;;;;;;;;;22.39;65.04;100178.69;7401164;19;1238;-78
2023/06/16 03:20:07;;;;;;;;;;;;;;;22.22;66.10;100189.47;7404079;19;1081;-79
2023/06/16 03:22:36;;;;;;;;;;;;;;;22.23;65.79;100174.97;7398523;19;1560;-79
2023/06/16 03:25:05;;;;;;;;;;;;;;;22.12;66.08;100172.63;7401266;19;1483;-78
2023/06/16 03:27:37;;;;;;;;;;;;;;;22.01;66.57;100181.06;7403600;19;1630;-79
2023/06/16 03:30:06;;;;;;;;;;;;;;;22.14;65.84;100189.47;7402990;19;1844;-79
2023/06/16 03:32:35;;;;;;;;;;;;;;;22.08;65.94;100184.75;7403598;19;1849;-79
2023/06/16 03:35:04;;;;;;;;;;;;;;;22.24;65.32;100171.31;7403758;19;1469;-79
2023/06/16 03:37:34;;;;;;;;;;;;;;;22.24;64.90;100174.00;7405338;19;1002;-79
2023/06/16 03:40:05;;;;;;;;;;;;;;;22.26;64.75;100173.81;7404252;19;1024;-78
2023/06/16 03:42:38;;;;;;;;;;;;;;;22.20;64.69;100161.88;7400742;19;1495;-79
2023/06/16 03:45:07;;;;;;;;;;;;;;;22.04;65.42;100181.59;7400526;19;1604;-79
2023/06/16 03:47:35;;;;;;;;;;;;;;;21.99;65.44;100185.78;7399667;19;1873;-80
2023/06/16 03:50:04;;;;;;;;;;;;;;;22.11;65.18;100173.66;7402426;19;1841;-79
2023/06/16 03:52:32;;;;;;;;;;;;;;;22.21;64.82;100162.69;7400074;19;1860;-79
2023/06/16 03:55:01;;;;;;;;;;;;;;;22.12;65.12;100161.84;7397654;19;1427;-82
2023/06/16 03:57:30;;;;;;;;;;;;;;;22.05;65.17;100172.47;7401531;19;1681;-83
2023/06/16 04:00:01;;;;;;;;;;;;;;;21.97;65.80;100183.25;7399261;19;1621;-82
2023/06/16 04:02:29;;;;;;;;;;;;;;;21.83;66.12;100182.09;7403986;19;1548;-82
2023/06/16 04:04:57;;;;;;;;;;;;;;;21.93;66.03;100181.91;7404781;19;1636;-82
2023/06/16 04:07:26;;;;;;;;;;;;;;;22.15;65.06;100179.53;7404514;19;1069;-82
2023/06/16 04:09:54;;;;;;;;;;;;;;;22.24;64.93;100186.63;7395776;19;1644;-78
2023/06/16 04:12:23;;;;;;;;;;;;;;;22.14;65.06;100181.38;7395363;19;1826;-79
2023/06/16 04:14:51;;;;;;;;;;;;;;;22.40;64.24;100183.03;7400376;19;1822;-78
2023/06/16 04:17:22;;;;;;;;;;;;;;;22.31;64.46;100179.53;7399824;19;1250;-78
2023/06/16 04:19:50;;;;;;;;;;;;;;;22.19;64.91;100184.41;7401771;19;1576;-78
2023/06/16 04:22:19;;;;;;;;;;;;;;;22.16;64.83;100174.00;7399370;19;1803;-78
2023/06/16 04:24:47;;;;;;;;;;;;;;;22.19;64.81;100179.03;7401899;19;1580;-78
2023/06/16 04:27:17;;;;;;;;;;;;;;;22.20;64.88;100183.41;7404020;19;1679;-78
2023/06/16 04:29:46;;;;;;;;;;;;;;;22.19;64.57;100189.81;7406485;19;1438;-78
2023/06/16 04:32:15;;;;;;;;;;;;;;;22.24;64.64;100194.69;7401093;19;1870;-78
2023/06/16 04:34:46;;;;;;;;;;;;;;;22.22;64.68;100181.41;7405164;19;1516;-79
2023/06/16 04:37:15;;;;;;;;;;;;;;;22.37;64.97;100183.41;7402159;19;1635;-76
2023/06/16 04:39:43;;;;;;;;;;;;;;;22.39;65.68;100182.22;7407960;19;1496;-78
2023/06/16 04:42:12;;;;;;;;;;;;;;;22.39;66.24;100186.78;7403258;19;1660;-78
2023/06/16 04:44:41;;;;;;;;;;;;;;;22.49;65.02;100182.03;7405152;19;1876;-76
2023/06/16 04:47:10;;;;;;;;;;;;;;;22.44;65.81;100198.72;7402286;19;1881;-78
2023/06/16 04:49:38;;;;;;;;;;;;;;;22.40;65.78;100193.81;7400791;19;1745;-77
2023/06/16 04:52:09;;;;;;;;;;;;;;;22.33;66.10;100199.06;7399047;19;1857;-78
2023/06/16 04:54:37;;;;;;;;;;;;;;;22.24;66.44;100210.84;7396574;19;1574;-78
2023/06/16 04:57:06;;;;;;;;;;;;;;;22.09;66.12;100207.16;7401783;19;1642;-79
2023/06/16 04:59:36;;;;;;;;;;;;;;;22.06;66.00;100208.31;7401221;19;1468;-78
2023/06/16 05:02:04;;;;;;;;;;;;;;;22.03;65.72;100192.53;7399624;19;1452;-77
2023/06/16 05:04:32;;;;;;;;;;;;;;;22.26;64.52;100202.63;7398504;19;1877;-80
2023/06/16 05:07:01;;;;;;;;;;;;;;;22.31;64.42;100201.09;7398968;19;1552;-80
2023/06/16 05:09:32;;;;;;;;;;;;;;;22.28;64.46;100200.59;7396858;19;1948;-77
2023/06/16 05:12:00;;;;;;;;;;;;;;;22.25;64.67;100217.94;7393540;19;1841;-79
2023/06/16 05:14:28;;;;;;;;;;;;;;;22.42;63.94;100208.81;7396573;19;1808;-79
2023/06/16 05:16:57;;;;;;;;;;;;;;;22.39;63.35;100219.09;7393467;19;1481;-77
2023/06/16 05:19:25;;;;;;;;;;;;;;;22.08;64.62;100217.06;7394099;19;1791;-80
2023/06/16 05:21:53;;;;;;;;;;;;;;;22.12;64.18;100223.78;7397068;19;1390;-78
2023/06/16 05:24:22;;;;;;;;;;;;;;;21.99;64.25;100223.47;7395386;19;1496;-78
2023/06/16 05:26:53;;;;;;;;;;;;;;;21.94;64.36;100223.97;7400012;19;1369;-78
2023/06/16 05:29:21;;;;;;;;;;;;;;;22.06;64.28;100211.00;7400500;19;1528;-77
2023/06/16 05:31:50;;;;;;;;;;;;;;;22.22;63.76;100227.19;7398504;19;1878;-77
2023/06/16 05:34:18;;;;;;;;;;;;;;;22.28;63.60;100216.75;7399077;19;1968;-77
2023/06/16 05:36:46;;;;;;;;;;;;;;;22.32;63.47;100218.09;7400257;19;1689;-77
2023/06/16 05:39:15;;;;;;;;;;;;;;;22.33;63.34;100230.56;7399575;19;1456;-77
2023/06/16 05:41:43;;;;;;;;;;;;;;;22.20;63.35;100221.13;7399226;19;1486;-77
2023/06/16 05:44:14;;;;;;;;;;;;;;;22.23;63.19;100234.22;7398996;19;1828;-80
2023/06/16 05:46:43;;;;;;;;;;;;;;;22.22;62.79;100229.00;7396465;19;1114;-79
2023/06/16 05:49:11;;;;;;;;;;;;;;;22.22;62.44;100227.19;7398427;19;1873;-80
2023/06/16 05:51:39;;;;;;;;;;;;;;;22.24;61.61;100238.66;7399253;19;1837;-78
2023/06/16 05:54:08;;;;;;;;;;;;;;;22.26;60.93;100234.94;7399314;19;1378;-77
2023/06/16 05:56:36;;;;;;;;;;;;;;;22.26;60.99;100214.22;7397033;19;1613;-77
2023/06/16 05:59:04;;;;;;;;;;;;;;;22.33;61.25;100214.41;7398254;19;1766;-77
2023/06/16 06:01:35;;;;;;;;;;;;;;;22.43;60.52;100209.66;7399303;19;1011;-77
2023/06/16 06:04:03;;;;;;;;;;;;;;;22.38;60.61;100228.19;7399665;19;995;-77
2023/06/16 06:06:32;;;;;;;;;;;;;;;22.33;60.70;100219.78;7397824;19;1934;-78
2023/06/16 06:09:00;;;;;;;;;;;;;;;22.48;60.76;100214.53;7396532;19;1952;-78
2023/06/16 06:11:28;;;;;;;;;;;;;;;22.68;60.05;100215.84;7396631;19;1824;-77
2023/06/16 06:13:57;;;;;;;;;;;;;;;22.72;60.36;100202.84;7396712;19;1857;-78
2023/06/16 06:16:27;;;;;;;;;;;;;;;22.63;59.77;100205.56;7398304;19;1843;-78
2023/06/16 06:18:58;;;;;;;;;;;;;;;22.53;59.18;100204.91;7397940;19;1991;-79
2023/06/16 06:21:26;;;;;;;;;;;;;;;22.54;58.96;100198.53;7393618;19;1969;-78
2023/06/16 06:23:55;;;;;;;;;;;;;;;22.66;58.37;100195.44;7394773;19;1782;-77
2023/06/16 06:26:23;;;;;;;;;;;;;;;22.49;59.05;100198.19;7400197;19;1181;-78
2023/06/16 06:28:51;;;;;;;;;;;;;;;22.71;57.91;100209.25;7398834;19;1841;-77
2023/06/16 06:31:20;;;;;;;;;;;;;;;22.72;58.38;100217.16;7398728;19;1878;-79
2023/06/16 06:33:48;;;;;;;;;;;;;;;22.70;58.44;100199.47;7397105;19;1842;-78
2023/06/16 06:36:26;;;;;;;;;;;;;;;22.70;58.80;100204.84;7397341;19;1929;-78
2023/06/16 06:38:55;;;;;;;;;;;;;;;22.79;58.54;100207.34;7399393;19;2064;-78
2023/06/16 06:41:24;;;;;;;;;;;;;;;22.81;58.80;100196.41;7397530;19;1497;-77
2023/06/16 06:43:52;;;;;;;;;;;;;;;22.54;57.35;100209.31;7397345;19;1861;-78
2023/06/16 06:46:20;;;;;;;;;;;;;;;22.48;57.18;100209.97;7396494;19;1740;-77
2023/06/16 06:48:49;;;;;;;;;;;;;;;22.63;57.95;100216.34;7397694;19;1832;-78
2023/06/16 06:51:17;;;;;;;;;;;;;;;22.56;57.48;100209.97;7394346;19;1838;-77
2023/06/16 06:53:48;;;;;;;;;;;;;;;22.57;57.63;100217.03;7395590;19;1948;-78
2023/06/16 06:56:17;;;;;;;;;;;;;;;22.76;57.23;100210.41;7395789;19;1466;-77
2023/06/16 06:58:45;;;;;;;;;;;;;;;22.75;57.28;100221.38;7397216;19;1742;-78
2023/06/16 07:01:17;;;;;;;;;;;;;;;22.66;57.41;100212.47;7395604;19;1597;-78
2023/06/16 07:03:45;;;;;;;;;;;;;;;22.85;57.67;100219.31;7395251;19;1705;-77
2023/06/16 07:06:13;;;;;;;;;;;;;;;22.91;57.43;100199.72;7395954;19;1530;-78
2023/06/16 07:08:42;;;;;;;;;;;;;;;22.93;57.15;100221.13;7395786;19;1739;-78
2023/06/16 07:11:13;;;;;;;;;;;;;;;23.00;57.01;100214.03;7395667;19;1811;-77
2023/06/16 07:13:41;;;;;;;;;;;;;;;22.97;57.38;100209.81;7395267;19;1727;-78
2023/06/16 07:16:09;;;;;;;;;;;;;;;22.92;56.34;100214.03;7398229;19;1636;-78
2023/06/16 07:18:38;;;;;;;;;;;;;;;23.08;56.02;100189.75;7396266;19;1263;-77
2023/06/16 07:21:06;;;;;;;;;;;;;;;23.27;56.02;100193.03;7394872;19;1034;-78
2023/06/16 07:23:35;;;;;;;;;;;;;;;23.00;57.09;100190.59;7394196;19;1949;-78
2023/06/16 07:26:03;;;;;;;;;;;;;;;22.89;56.89;100188.28;7395846;19;1348;-78
2023/06/16 07:28:34;;;;;;;;;;;;;;;22.94;57.13;100191.31;7397572;19;1747;-78
2023/06/16 07:31:03;;;;;;;;;;;;;;;22.98;57.15;100191.81;7396895;19;1633;-78
2023/06/16 07:33:31;;;;;;;;;;;;;;;23.01;56.66;100197.66;7393365;19;1846;-78
2023/06/16 07:36:00;;;;;;;;;;;;;;;23.10;56.86;100190.41;7395372;19;1781;-78
2023/06/16 07:38:28;;;;;;;;;;;;;;;23.05;57.02;100216.22;7397909;19;1585;-78
2023/06/16 07:40:57;;;;;;;;;;;;;;;23.12;56.99;100201.88;7397460;19;1357;-78
2023/06/16 07:43:25;;;;;;;;;;;;;;;23.30;56.18;100185.41;7394674;19;1498;-78
2023/06/16 07:45:56;;;;;;;;;;;;;;;23.45;55.61;100198.97;7395474;19;1463;-80
2023/06/16 07:48:24;;;;;;;;;;;;;;;23.19;56.39;100188.50;7400853;19;1459;-78
2023/06/16 07:50:53;;;;;;;;;;;;;;;23.28;56.36;100187.44;7403811;19;990;-78
2023/06/16 07:53:21;;;;;;;;;;;;;;;23.22;55.72;100194.41;7399644;19;1844;-78
2023/06/16 07:55:49;;;;;;;;;;;;;;;23.38;56.19;100187.22;7403116;19;1502;-78
2023/06/16 07:58:19;;;;;;;;;;;;;;;23.55;55.41;100183.38;7402786;19;1426;-78
2023/06/16 08:00:51;;;;;;;;;;;;;;;23.47;55.86;100180.72;7399584;19;1525;-78
2023/06/16 08:03:22;;;;;;;;;;;;;;;23.28;54.84;100152.38;7401278;19;1230;-77
2023/06/16 08:05:50;;;;;;;;;;;;;;;23.45;55.15;100190.03;7402059;19;1208;-77
2023/06/16 08:08:20;;;;;;;;;;;;;;;23.42;55.25;100183.97;7403429;19;1409;-78
2023/06/16 08:10:48;;;;;;;;;;;;;;;23.41;55.18;100176.88;7402080;19;1479;-77
2023/06/16 08:13:17;;;;;;;;;;;;;;;23.43;54.57;100179.41;7399608;19;1888;-77
2023/06/16 08:15:45;;;;;;;;;;;;;;;23.40;53.29;100174.41;7403090;19;1335;-77
2023/06/16 08:18:13;;;;;;;;;;;;;;;23.31;52.75;100178.16;7400661;19;1527;-78
2023/06/16 08:20:44;;;;;;;;;;;;;;;23.43;52.06;100174.84;7403089;19;1082;-78
2023/06/16 08:23:13;;;;;;;;;;;;;;;23.46;51.68;100189.88;7398380;19;1949;-78
2023/06/16 08:25:41;;;;;;;;;;;;;;;23.48;51.39;100185.13;7398215;19;1706;-80
2023/06/16 08:28:09;;;;;;;;;;;;;;;23.62;51.09;100189.75;7402031;19;1656;-80
2023/06/16 08:30:38;;;;;;;;;;;;;;;23.77;51.02;100176.31;7402768;19;1542;-81
2023/06/16 08:33:08;;;;;;;;;;;;;;;23.72;51.19;100186.81;7399303;19;1875;-80
2023/06/16 08:35:36;;;;;;;;;;;;;;;23.74;51.20;100186.63;7400815;19;1421;-81
2023/06/16 08:38:08;;;;;;;;;;;;;;;23.71;51.40;100178.88;7401584;19;1423;-81
2023/06/16 08:40:36;;;;;;;;;;;;;;;23.80;51.18;100181.38;7400929;19;1142;-82
2023/06/16 08:43:07;;;;;;;;;;;;;;;23.87;52.04;100186.03;7400613;19;1255;-79
2023/06/16 08:45:36;;;;;;;;;;;;;;;23.85;52.01;100204.28;7403191;19;1085;-80
2023/06/16 08:48:05;;;;;;;;;;;;;;;23.88;52.26;100179.63;7402367;19;1320;-81
2023/06/16 08:50:34;;;;;;;;;;;;;;;23.89;52.66;100181.28;7401966;19;1081;-79
2023/06/16 08:53:06;;;;;;;;;;;;;;;23.95;51.65;100161.66;7400298;19;1860;-79
2023/06/16 08:55:37;;;;;;;;;;;;;;;23.96;52.95;100179.56;7399939;19;1358;-81
2023/06/16 08:58:06;;;;;;;;;;;;;;;23.94;52.20;100166.22;7398971;19;1594;-80
2023/06/16 09:00:36;;;;;;;;;;;;;;;24.08;50.42;100161.03;7400109;19;1121;-81
2023/06/16 09:03:05;;;;;;;;;;;;;;;24.07;50.60;100170.16;7398035;19;1550;-80
2023/06/16 09:05:33;;;;;;;;;;;;;;;24.08;51.79;100164.56;7401213;19;1317;-80
2023/06/16 09:08:02;;;;;;;;;;;;;;;24.13;49.61;100164.88;7400939;19;1612;-80
2023/06/16 09:10:30;;;;;;;;;;;;;;;24.17;50.11;100165.31;7399420;19;1737;-80
2023/06/16 09:13:04;;;;;;;;;;;;;;;24.32;49.63;100168.06;7398340;19;1849;-81
2023/06/16 09:15:33;;;;;;;;;;;;;;;24.14;49.99;100166.53;7399852;19;1283;-80
2023/06/16 09:18:06;;;;;;;;;;;;;;;24.08;49.94;100161.03;7401772;19;1127;-81
2023/06/16 09:20:35;;;;;;;;;;;;;;;24.07;49.57;100160.19;7402568;19;1363;-80
2023/06/16 09:23:05;;;;;;;;;;;;;;;24.08;50.35;100151.06;7397234;19;1471;-81
2023/06/16 09:25:34;;;;;;;;;;;;;;;24.05;50.52;100161.41;7401326;19;1667;-80
2023/06/16 09:28:07;;;;;;;;;;;;;;;24.01;48.96;100150.97;7400871;19;1407;-80
2023/06/16 09:30:36;;;;;;;;;;;;;;;24.03;48.73;100164.28;7400219;19;1562;-81
2023/06/16 09:33:07;;;;;;;;;;;;;;;23.97;47.91;100155.06;7397782;19;1837;-80
2023/06/16 09:35:36;;;;;;;;;;;;;;;23.98;46.73;100151.34;7397429;19;1452;-80
2023/06/16 09:38:04;;;;;;;;;;;;;;;24.03;46.40;100142.66;7398861;19;1481;-81
2023/06/16 09:40:33;;;;;;;;;;;;;;;24.19;46.02;100142.53;7399055;19;1435;-80
2023/06/16 09:43:03;;;;;;;;;;;;;;;24.32;46.00;100147.28;7399682;19;1463;-80
2023/06/16 09:45:35;;;;;;;;;;;;;;;24.15;46.21;100146.63;7399515;19;1179;-80
2023/06/16 09:48:05;;;;;;;;;;;;;;;24.05;46.80;100146.03;7398342;19;1324;-80
2023/06/16 09:50:33;;;;;;;;;;;;;;;24.09;48.29;100158.13;7400763;19;960;-80
2023/06/16 09:53:06;;;;;;;;;;;;;;;24.12;48.73;100148.84;7398760;19;1861;-80
2023/06/16 09:55:36;;;;;;;;;;;;;;;24.09;49.21;100162.72;7399138;19;1384;-80
2023/06/16 09:58:04;;;;;;;;;;;;;;;24.08;49.61;100139.44;7396694;19;1529;-80
2023/06/16 10:00:35;;;;;;;;;;;;;;;24.05;49.84;100148.72;7397158;19;1639;-79
2023/06/16 10:03:04;;;;;;;;;;;;;;;23.95;49.98;100137.34;7402462;19;1153;-80
2023/06/16 10:05:35;;;;;;;;;;;;;;;23.96;50.24;100125.53;7400867;19;1339;-80
2023/06/16 10:08:05;;;;;;;;;;;;;;;24.03;50.82;100126.47;7400270;19;1656;-80
2023/06/16 10:10:34;;;;;;;;;;;;;;;24.08;51.32;100134.03;7396594;19;1245;-80
2023/06/16 10:13:03;;;;;;;;;;;;;;;24.08;52.06;100148.38;7398100;19;1856;-80
2023/06/16 10:15:34;;;;;;;;;;;;;;;24.05;51.75;100139.78;7398123;19;1396;-80
2023/06/16 10:18:06;;;;;;;;;;;;;;;24.03;52.18;100137.28;7397515;19;1387;-80
2023/06/16 10:20:37;;;;;;;;;;;;;;;24.05;52.54;100119.00;7398596;19;1371;-80
2023/06/16 10:23:06;;;;;;;;;;;;;;;24.14;52.53;100112.50;7396161;19;1145;-80
2023/06/16 10:25:36;;;;;;;;;;;;;;;24.12;51.75;100111.88;7398637;19;1602;-80
2023/06/16 10:28:10;;;;;;;;;;;;;;;24.07;51.79;100106.16;7398151;19;1271;-79
2023/06/16 10:30:39;;;;;;;;;;;;;;;24.06;52.34;100131.50;7395218;19;1642;-80
2023/06/16 10:33:20;;;;;;;;;;;;;;;24.02;52.28;100119.41;7396769;19;1837;-77
2023/06/16 10:35:51;;;;;;;;;;;;;;;24.08;51.60;100128.63;7397073;19;1280;-77
2023/06/16 10:38:20;;;;;;;;;;;;;;;24.20;48.28;100110.94;7402051;19;1005;-77
2023/06/16 10:40:50;;;;;;;;;;;;;;;24.16;49.30;100120.44;7398290;19;1572;-77
2023/06/16 10:43:26;;;;;;;;;;;;;;;24.11;49.25;100106.63;7403517;19;1680;-78
2023/06/16 10:46:09;;;;;;;;;;;;;;;24.16;49.24;100093.44;7400222;19;1487;-78
2023/06/16 10:48:52;;;;;;;;;;;;;;;24.00;50.03;100116.88;7411549;19;1486;-77
2023/06/16 10:51:41;;;;;;;;;;;;;;;24.07;50.48;100095.38;7412097;19;1441;-77
2023/06/16 10:54:10;;;;;;;;;;;;;;;24.06;50.74;100112.59;7412822;19;1856;-77
2023/06/16 10:56:53;;;;;;;;;;;;;;;23.96;51.25;100093.97;7410981;19;1537;-77
2023/06/16 10:59:22;;;;;;;;;;;;;;;23.91;51.88;100107.16;7398517;19;1374;-77
2023/06/16 11:01:50;;;;;;;;;;;;;;;23.87;52.25;100110.44;7398376;19;1565;-79
2023/06/16 11:04:18;;;;;;;;;;;;;;;23.99;52.04;100103.56;7394823;19;1390;-77
2023/06/16 11:07:16;;;;;;;;;;;;;;;23.87;52.15;100096.94;7397613;19;1733;-78
2023/06/16 11:09:58;;;;;;;;;;;;;;;23.93;52.38;100121.31;7393156;19;1366;-78
2023/06/16 11:12:27;;;;;;;;;;;;;;;23.88;52.43;100115.66;7393594;19;1687;-78
2023/06/16 11:14:56;;;;;;;;;;;;;;;23.87;51.60;100089.66;7389023;19;1852;-78
2023/06/16 11:17:25;;;;;;;;;;;;;;;24.03;51.44;100094.06;7391618;19;1580;-77
2023/06/16 11:19:53;;;;;;;;;;;;;;;23.84;52.39;100106.25;7397447;19;1541;-78
2023/06/16 11:22:28;;;;;;;;;;;;;;;23.88;52.35;100085.13;7401535;19;1222;-78
2023/06/16 11:25:00;;;;;;;;;;;;;;;23.78;52.80;100088.91;7401328;19;1396;-78
2023/06/16 11:27:29;;;;;;;;;;;;;;;23.79;53.22;100078.94;7406091;19;1614;-77
2023/06/16 11:29:57;;;;;;;;;;;;;;;23.77;52.68;100083.66;7402492;19;1498;-78
2023/06/16 11:32:26;;;;;;;;;;;;;;;23.80;53.42;100076.06;7400916;19;1456;-78
2023/06/16 11:34:55;;;;;;;;;;;;;;;23.74;53.40;100068.69;7396432;19;1853;-78
2023/06/16 11:37:24;;;;;;;;;;;;;;;23.78;53.21;100078.13;7400465;19;1494;-77
2023/06/16 11:39:52;;;;;;;;;;;;;;;23.81;53.64;100064.25;7397286;19;1779;-78
2023/06/16 11:42:23;;;;;;;;;;;;;;;23.93;53.35;100080.00;7400907;19;1541;-78
2023/06/16 11:44:56;;;;;;;;;;;;;;;23.84;53.87;100060.34;7400626;19;1438;-78
2023/06/16 11:47:24;;;;;;;;;;;;;;;23.84;53.79;100040.63;7401197;19;1463;-78
2023/06/16 11:49:53;;;;;;;;;;;;;;;23.85;54.07;100042.28;7400040;19;1849;-78
2023/06/16 11:52:22;;;;;;;;;;;;;;;23.94;53.62;100047.41;7398832;19;1685;-78
2023/06/16 11:54:51;;;;;;;;;;;;;;;23.96;54.08;100048.06;7395966;19;1803;-78
2023/06/16 11:57:19;;;;;;;;;;;;;;;23.86;54.19;100065.56;7401833;19;1598;-78
2023/06/16 11:59:50;;;;;;;;;;;;;;;23.90;53.90;100069.56;7398677;19;1560;-78
2023/06/16 12:02:18;;;;;;;;;;;;;;;23.89;54.24;100046.28;7396202;19;1656;-78
2023/06/16 12:04:47;;;;;;;;;;;;;;;23.85;54.53;100021.50;7396611;19;1648;-78
2023/06/16 12:07:16;;;;;;;;;;;;;;;23.87;54.58;100045.63;7396515;19;1533;-78
2023/06/16 12:09:44;;;;;;;;;;;;;;;23.85;54.34;100058.47;7397604;19;1460;-78
2023/06/16 12:12:13;;;;;;;;;;;;;;;24.02;54.35;100044.59;7400886;19;1477;-78
2023/06/16 12:14:42;;;;;;;;;;;;;;;23.95;54.42;100032.03;7398619;19;1834;-77
2023/06/16 12:17:13;;;;;;;;;;;;;;;23.91;54.75;100033.44;7403888;19;955;-78
2023/06/16 12:19:41;;;;;;;;;;;;;;;23.99;54.82;100027.94;7402626;19;1545;-79
2023/06/16 12:22:09;;;;;;;;;;;;;;;23.88;55.00;100033.81;7402448;19;1761;-79
2023/06/16 12:24:37;;;;;;;;;;;;;;;23.86;55.16;100025.91;7398664;19;1370;-78
2023/06/16 12:27:06;;;;;;;;;;;;;;;23.88;55.31;100025.72;7401006;19;1610;-78
2023/06/16 12:29:34;;;;;;;;;;;;;;;23.85;55.04;100010.69;7402835;19;1660;-78
2023/06/16 12:32:05;;;;;;;;;;;;;;;23.79;55.38;100001.47;7402540;19;1501;-79
2023/06/16 12:34:37;;;;;;;;;;;;;;;23.69;55.80;100030.59;7399917;19;1841;-79
2023/06/16 12:37:07;;;;;;;;;;;;;;;23.64;56.10;100019.53;7399400;19;1730;-79
2023/06/16 12:39:37;;;;;;;;;;;;;;;23.65;56.00;99994.19;7400625;19;1969;-79
2023/06/16 12:42:06;;;;;;;;;;;;;;;23.68;55.99;100020.81;7400159;19;1652;-78
2023/06/16 12:44:44;;;;;;;;;;;;;;;23.70;56.35;100024.19;7403326;19;1532;-78
2023/06/16 12:47:12;;;;;;;;;;;;;;;23.84;55.88;100019.00;7400315;19;1371;-78
2023/06/16 12:49:44;;;;;;;;;;;;;;;23.90;55.72;100005.59;7401733;19;1522;-78
2023/06/16 12:52:13;;;;;;;;;;;;;;;23.79;56.16;99984.44;7402558;19;1653;-78
2023/06/16 12:54:41;;;;;;;;;;;;;;;23.85;55.81;99988.28;7398948;19;1858;-78
2023/06/16 12:57:09;;;;;;;;;;;;;;;23.86;55.98;100006.16;7401896;19;1609;-78
2023/06/16 12:59:38;;;;;;;;;;;;;;;23.87;56.00;99976.25;7401307;19;1427;-78